Terminal Aerodrome Forecast
Issued by NWS

Home | Current Version | Previous Version | Text Only | Print | Product List | Glossary On
Versions: 1 2 3 4 5 6 7 8 9 10 11 12 13 14 15 16 17 18 19
018
FTAK31 PAJN 300535
TAFAPG
TAF
PAPG 300535Z 3006/3106 22003KT P6SM -SHRA SCT012 OVC035
      TEMPO 3006/3009 OVC020
     FM300900 VRB03KT 4SM BCFG SCT002 OVC015
     FM301700 10007KT P6SM VCSH FEW008 OVC025 WS020/15025KT
     FM310200 12012KT 6SM -RA SCT025 OVC040 WS020/15035KT
      AMD LTD TO CLD VIS AND WIND 3006/3015=

USA.gov is the U.S. government's official web portal to all federal, state and local government web resources and services.